sensor_id;sensor_type;location;lat;lon;timestamp;P1;durP1;ratioP1;P2;durP2;ratioP2
3891;SDS011;1961;48.194;16.370;2022-08-24T00:02:11;44.03;;;7.60;;
3891;SDS011;1961;48.194;16.370;2022-08-24T00:04:37;46.43;;;7.93;;
3891;SDS011;1961;48.194;16.370;2022-08-24T00:07:03;44.47;;;7.30;;
3891;SDS011;1961;48.194;16.370;2022-08-24T00:09:31;45.87;;;8.20;;
3891;SDS011;1961;48.194;16.370;2022-08-24T00:11:58;45.43;;;8.37;;
3891;SDS011;1961;48.194;16.370;2022-08-24T00:14:24;44.17;;;7.87;;
3891;SDS011;1961;48.194;16.370;2022-08-24T00:16:51;45.63;;;8.40;;
3891;SDS011;1961;48.194;16.370;2022-08-24T00:19:18;46.33;;;8.27;;
3891;SDS011;1961;48.194;16.370;2022-08-24T00:21:44;43.93;;;7.90;;
3891;SDS011;1961;48.194;16.370;2022-08-24T00:24:10;45.70;;;8.50;;
3891;SDS011;1961;48.194;16.370;2022-08-24T00:26:37;45.97;;;8.50;;
3891;SDS011;1961;48.194;16.370;2022-08-24T00:29:03;46.13;;;8.97;;
3891;SDS011;1961;48.194;16.370;2022-08-24T00:31:30;44.07;;;8.10;;
3891;SDS011;1961;48.194;16.370;2022-08-24T00:33:56;46.73;;;8.90;;
3891;SDS011;1961;48.194;16.370;2022-08-24T00:36:23;45.60;;;8.87;;
3891;SDS011;1961;48.194;16.370;2022-08-24T00:38:50;44.87;;;8.67;;
3891;SDS011;1961;48.194;16.370;2022-08-24T00:41:16;45.20;;;8.57;;
3891;SDS011;1961;48.194;16.370;2022-08-24T00:44:16;46.20;;;8.40;;
3891;SDS011;1961;48.194;16.370;2022-08-24T00:49:22;43.97;;;7.73;;
3891;SDS011;1961;48.194;16.370;2022-08-24T00:52:08;44.37;;;7.83;;
3891;SDS011;1961;48.194;16.370;2022-08-24T00:54:37;43.93;;;8.10;;
3891;SDS011;1961;48.194;16.370;2022-08-24T00:57:05;44.33;;;8.17;;
3891;SDS011;1961;48.194;16.370;2022-08-24T00:59:35;43.70;;;7.73;;
3891;SDS011;1961;48.194;16.370;2022-08-24T01:02:04;43.93;;;7.53;;
3891;SDS011;1961;48.194;16.370;2022-08-24T01:04:34;43.40;;;7.60;;
3891;SDS011;1961;48.194;16.370;2022-08-24T01:07:01;43.30;;;7.50;;
3891;SDS011;1961;48.194;16.370;2022-08-24T01:09:28;45.60;;;8.23;;
3891;SDS011;1961;48.194;16.370;2022-08-24T01:11:54;43.97;;;7.90;;
3891;SDS011;1961;48.194;16.370;2022-08-24T01:14:21;44.33;;;8.20;;
3891;SDS011;1961;48.194;16.370;2022-08-24T01:16:48;44.20;;;7.70;;
3891;SDS011;1961;48.194;16.370;2022-08-24T01:19:37;42.57;;;7.33;;
3891;SDS011;1961;48.194;16.370;2022-08-24T01:24:33;42.37;;;7.00;;
3891;SDS011;1961;48.194;16.370;2022-08-24T01:27:00;43.30;;;7.40;;
3891;SDS011;1961;48.194;16.370;2022-08-24T01:29:27;44.40;;;8.07;;
3891;SDS011;1961;48.194;16.370;2022-08-24T01:31:56;44.57;;;7.80;;
3891;SDS011;1961;48.194;16.370;2022-08-24T01:34:22;43.47;;;7.40;;
3891;SDS011;1961;48.194;16.370;2022-08-24T01:36:50;44.70;;;7.03;;
3891;SDS011;1961;48.194;16.370;2022-08-24T01:41:49;45.00;;;7.77;;
3891;SDS011;1961;48.194;16.370;2022-08-24T01:44:16;43.87;;;7.10;;
3891;SDS011;1961;48.194;16.370;2022-08-24T01:46:45;43.53;;;7.90;;
3891;SDS011;1961;48.194;16.370;2022-08-24T01:49:12;43.30;;;7.27;;
3891;SDS011;1961;48.194;16.370;2022-08-24T01:51:39;43.07;;;7.00;;
3891;SDS011;1961;48.194;16.370;2022-08-24T01:54:06;42.63;;;7.07;;
3891;SDS011;1961;48.194;16.370;2022-08-24T01:56:33;43.67;;;7.60;;
3891;SDS011;1961;48.194;16.370;2022-08-24T01:58:59;44.13;;;7.20;;
3891;SDS011;1961;48.194;16.370;2022-08-24T02:01:26;43.23;;;7.20;;
3891;SDS011;1961;48.194;16.370;2022-08-24T02:03:53;43.80;;;7.20;;
3891;SDS011;1961;48.194;16.370;2022-08-24T02:06:20;44.30;;;7.40;;
3891;SDS011;1961;48.194;16.370;2022-08-24T02:08:46;43.03;;;6.80;;
3891;SDS011;1961;48.194;16.370;2022-08-24T02:11:12;47.97;;;6.90;;
3891;SDS011;1961;48.194;16.370;2022-08-24T02:13:39;43.17;;;7.30;;
3891;SDS011;1961;48.194;16.370;2022-08-24T02:16:06;43.10;;;7.43;;
3891;SDS011;1961;48.194;16.370;2022-08-24T02:18:33;43.20;;;6.90;;
3891;SDS011;1961;48.194;16.370;2022-08-24T02:20:59;44.23;;;7.50;;
3891;SDS011;1961;48.194;16.370;2022-08-24T02:23:26;43.77;;;7.07;;
3891;SDS011;1961;48.194;16.370;2022-08-24T02:25:53;44.87;;;7.40;;
3891;SDS011;1961;48.194;16.370;2022-08-24T02:28:20;43.03;;;7.30;;
3891;SDS011;1961;48.194;16.370;2022-08-24T02:30:47;43.67;;;7.17;;
3891;SDS011;1961;48.194;16.370;2022-08-24T02:33:13;43.27;;;7.10;;
3891;SDS011;1961;48.194;16.370;2022-08-24T02:35:40;44.20;;;7.33;;
3891;SDS011;1961;48.194;16.370;2022-08-24T02:38:06;43.73;;;8.13;;
3891;SDS011;1961;48.194;16.370;2022-08-24T02:40:34;46.50;;;8.60;;
3891;SDS011;1961;48.194;16.370;2022-08-24T02:43:00;45.40;;;7.67;;
3891;SDS011;1961;48.194;16.370;2022-08-24T02:45:26;44.43;;;7.30;;
3891;SDS011;1961;48.194;16.370;2022-08-24T02:47:53;44.83;;;7.90;;
3891;SDS011;1961;48.194;16.370;2022-08-24T02:50:19;44.27;;;8.10;;
3891;SDS011;1961;48.194;16.370;2022-08-24T02:52:45;43.73;;;7.73;;
3891;SDS011;1961;48.194;16.370;2022-08-24T02:55:13;43.90;;;7.63;;
3891;SDS011;1961;48.194;16.370;2022-08-24T02:57:39;44.00;;;7.67;;
3891;SDS011;1961;48.194;16.370;2022-08-24T03:00:07;43.87;;;7.83;;
3891;SDS011;1961;48.194;16.370;2022-08-24T03:02:34;44.83;;;8.53;;
3891;SDS011;1961;48.194;16.370;2022-08-24T03:05:01;44.90;;;7.93;;
3891;SDS011;1961;48.194;16.370;2022-08-24T03:07:27;44.23;;;7.70;;
3891;SDS011;1961;48.194;16.370;2022-08-24T03:09:53;44.50;;;7.87;;
3891;SDS011;1961;48.194;16.370;2022-08-24T03:12:19;43.47;;;7.50;;
3891;SDS011;1961;48.194;16.370;2022-08-24T03:14:46;44.77;;;7.70;;
3891;SDS011;1961;48.194;16.370;2022-08-24T03:17:12;44.03;;;7.70;;
3891;SDS011;1961;48.194;16.370;2022-08-24T03:19:38;45.13;;;8.30;;
3891;SDS011;1961;48.194;16.370;2022-08-24T03:22:04;43.60;;;7.93;;
3891;SDS011;1961;48.194;16.370;2022-08-24T03:24:31;43.60;;;8.00;;
3891;SDS011;1961;48.194;16.370;2022-08-24T03:26:57;43.60;;;8.03;;
3891;SDS011;1961;48.194;16.370;2022-08-24T03:29:23;44.30;;;8.20;;
3891;SDS011;1961;48.194;16.370;2022-08-24T03:31:49;44.00;;;7.77;;
3891;SDS011;1961;48.194;16.370;2022-08-24T03:34:15;44.90;;;7.97;;
3891;SDS011;1961;48.194;16.370;2022-08-24T03:36:42;44.90;;;8.17;;
3891;SDS011;1961;48.194;16.370;2022-08-24T03:39:12;45.60;;;7.90;;
3891;SDS011;1961;48.194;16.370;2022-08-24T03:41:39;45.37;;;9.20;;
3891;SDS011;1961;48.194;16.370;2022-08-24T03:44:05;46.73;;;8.53;;
3891;SDS011;1961;48.194;16.370;2022-08-24T03:46:33;45.40;;;7.90;;
3891;SDS011;1961;48.194;16.370;2022-08-24T03:49:01;45.07;;;8.23;;
3891;SDS011;1961;48.194;16.370;2022-08-24T03:51:28;45.13;;;8.63;;
3891;SDS011;1961;48.194;16.370;2022-08-24T03:53:56;46.47;;;8.00;;
3891;SDS011;1961;48.194;16.370;2022-08-24T03:56:22;44.60;;;8.70;;
3891;SDS011;1961;48.194;16.370;2022-08-24T03:58:49;44.93;;;8.50;;
3891;SDS011;1961;48.194;16.370;2022-08-24T04:01:15;44.70;;;7.70;;
3891;SDS011;1961;48.194;16.370;2022-08-24T04:03:42;44.60;;;7.90;;
3891;SDS011;1961;48.194;16.370;2022-08-24T04:06:08;46.20;;;9.03;;
3891;SDS011;1961;48.194;16.370;2022-08-24T04:08:35;44.30;;;8.10;;
3891;SDS011;1961;48.194;16.370;2022-08-24T04:11:02;45.20;;;8.27;;
3891;SDS011;1961;48.194;16.370;2022-08-24T04:13:28;47.20;;;8.33;;
3891;SDS011;1961;48.194;16.370;2022-08-24T04:16:05;44.47;;;8.00;;
3891;SDS011;1961;48.194;16.370;2022-08-24T04:18:32;45.30;;;8.47;;
3891;SDS011;1961;48.194;16.370;2022-08-24T04:20:59;51.73;;;10.30;;
3891;SDS011;1961;48.194;16.370;2022-08-24T04:23:25;46.83;;;9.40;;
3891;SDS011;1961;48.194;16.370;2022-08-24T04:25:51;47.60;;;8.70;;
3891;SDS011;1961;48.194;16.370;2022-08-24T04:28:20;48.40;;;9.40;;
3891;SDS011;1961;48.194;16.370;2022-08-24T04:30:48;44.70;;;8.80;;
3891;SDS011;1961;48.194;16.370;2022-08-24T04:33:15;44.40;;;7.90;;
3891;SDS011;1961;48.194;16.370;2022-08-24T04:35:43;44.77;;;8.60;;
3891;SDS011;1961;48.194;16.370;2022-08-24T04:38:11;44.03;;;7.67;;
3891;SDS011;1961;48.194;16.370;2022-08-24T04:40:38;47.40;;;9.03;;
3891;SDS011;1961;48.194;16.370;2022-08-24T04:43:05;46.63;;;8.77;;
3891;SDS011;1961;48.194;16.370;2022-08-24T04:45:31;45.03;;;8.53;;
3891;SDS011;1961;48.194;16.370;2022-08-24T04:47:58;47.00;;;8.30;;
3891;SDS011;1961;48.194;16.370;2022-08-24T04:50:25;49.10;;;9.30;;
3891;SDS011;1961;48.194;16.370;2022-08-24T04:52:51;45.97;;;8.93;;
3891;SDS011;1961;48.194;16.370;2022-08-24T04:55:17;44.93;;;8.17;;
3891;SDS011;1961;48.194;16.370;2022-08-24T04:57:43;45.77;;;8.70;;
3891;SDS011;1961;48.194;16.370;2022-08-24T05:00:09;44.60;;;8.30;;
3891;SDS011;1961;48.194;16.370;2022-08-24T05:02:36;45.77;;;8.00;;
3891;SDS011;1961;48.194;16.370;2022-08-24T05:05:08;44.40;;;8.43;;
3891;SDS011;1961;48.194;16.370;2022-08-24T05:07:35;44.80;;;8.53;;
3891;SDS011;1961;48.194;16.370;2022-08-24T05:10:03;45.27;;;9.23;;
3891;SDS011;1961;48.194;16.370;2022-08-24T05:12:30;48.07;;;8.60;;
3891;SDS011;1961;48.194;16.370;2022-08-24T05:14:57;44.80;;;8.60;;
3891;SDS011;1961;48.194;16.370;2022-08-24T05:17:24;46.23;;;8.80;;
3891;SDS011;1961;48.194;16.370;2022-08-24T05:19:50;46.10;;;7.80;;
3891;SDS011;1961;48.194;16.370;2022-08-24T05:22:17;45.60;;;9.17;;
3891;SDS011;1961;48.194;16.370;2022-08-24T05:24:43;43.57;;;7.90;;
3891;SDS011;1961;48.194;16.370;2022-08-24T05:27:09;47.20;;;8.30;;
3891;SDS011;1961;48.194;16.370;2022-08-24T05:29:35;45.50;;;8.60;;
3891;SDS011;1961;48.194;16.370;2022-08-24T05:32:02;46.80;;;8.50;;
3891;SDS011;1961;48.194;16.370;2022-08-24T05:34:28;43.77;;;8.07;;
3891;SDS011;1961;48.194;16.370;2022-08-24T05:36:54;44.87;;;7.77;;
3891;SDS011;1961;48.194;16.370;2022-08-24T05:39:20;46.10;;;8.30;;
3891;SDS011;1961;48.194;16.370;2022-08-24T05:41:46;44.40;;;7.00;;
3891;SDS011;1961;48.194;16.370;2022-08-24T05:44:14;46.00;;;8.00;;
3891;SDS011;1961;48.194;16.370;2022-08-24T05:46:41;45.40;;;8.33;;
3891;SDS011;1961;48.194;16.370;2022-08-24T05:49:07;44.90;;;7.93;;
3891;SDS011;1961;48.194;16.370;2022-08-24T05:51:34;46.10;;;8.07;;
3891;SDS011;1961;48.194;16.370;2022-08-24T05:54:00;44.37;;;7.00;;
3891;SDS011;1961;48.194;16.370;2022-08-24T05:56:29;45.30;;;7.63;;
3891;SDS011;1961;48.194;16.370;2022-08-24T05:58:55;47.70;;;8.63;;
3891;SDS011;1961;48.194;16.370;2022-08-24T06:01:23;47.27;;;8.40;;
3891;SDS011;1961;48.194;16.370;2022-08-24T06:03:50;47.60;;;7.90;;
3891;SDS011;1961;48.194;16.370;2022-08-24T06:06:17;44.23;;;8.07;;
3891;SDS011;1961;48.194;16.370;2022-08-24T06:08:46;45.07;;;8.20;;
3891;SDS011;1961;48.194;16.370;2022-08-24T06:11:23;45.07;;;8.23;;
3891;SDS011;1961;48.194;16.370;2022-08-24T06:13:50;44.77;;;7.70;;
3891;SDS011;1961;48.194;16.370;2022-08-24T06:16:16;45.97;;;8.27;;
3891;SDS011;1961;48.194;16.370;2022-08-24T06:18:42;44.60;;;8.10;;
3891;SDS011;1961;48.194;16.370;2022-08-24T06:21:10;44.80;;;7.90;;
3891;SDS011;1961;48.194;16.370;2022-08-24T06:23:37;44.90;;;7.40;;
3891;SDS011;1961;48.194;16.370;2022-08-24T06:26:04;46.33;;;8.37;;
3891;SDS011;1961;48.194;16.370;2022-08-24T06:28:50;44.83;;;7.57;;
3891;SDS011;1961;48.194;16.370;2022-08-24T06:31:17;47.90;;;8.80;;
3891;SDS011;1961;48.194;16.370;2022-08-24T06:33:43;44.70;;;7.80;;
3891;SDS011;1961;48.194;16.370;2022-08-24T06:36:09;45.90;;;7.70;;
3891;SDS011;1961;48.194;16.370;2022-08-24T06:38:36;46.93;;;9.23;;
3891;SDS011;1961;48.194;16.370;2022-08-24T06:41:02;45.30;;;8.90;;
3891;SDS011;1961;48.194;16.370;2022-08-24T06:43:29;44.90;;;8.20;;
3891;SDS011;1961;48.194;16.370;2022-08-24T06:45:55;48.57;;;9.00;;
3891;SDS011;1961;48.194;16.370;2022-08-24T06:48:22;48.77;;;9.40;;
3891;SDS011;1961;48.194;16.370;2022-08-24T06:50:49;45.80;;;9.47;;
3891;SDS011;1961;48.194;16.370;2022-08-24T06:53:15;46.00;;;8.97;;
3891;SDS011;1961;48.194;16.370;2022-08-24T06:55:53;44.20;;;8.40;;
3891;SDS011;1961;48.194;16.370;2022-08-24T06:58:20;56.27;;;16.73;;
3891;SDS011;1961;48.194;16.370;2022-08-24T07:00:46;46.80;;;9.00;;
3891;SDS011;1961;48.194;16.370;2022-08-24T07:03:14;48.77;;;9.97;;
3891;SDS011;1961;48.194;16.370;2022-08-24T07:05:41;46.43;;;8.63;;
3891;SDS011;1961;48.194;16.370;2022-08-24T07:08:14;45.50;;;8.50;;
3891;SDS011;1961;48.194;16.370;2022-08-24T07:10:40;45.20;;;9.00;;
3891;SDS011;1961;48.194;16.370;2022-08-24T07:13:06;47.37;;;9.87;;
3891;SDS011;1961;48.194;16.370;2022-08-24T07:15:34;46.77;;;9.07;;
3891;SDS011;1961;48.194;16.370;2022-08-24T07:18:00;46.67;;;8.67;;
3891;SDS011;1961;48.194;16.370;2022-08-24T07:20:28;44.17;;;8.00;;
3891;SDS011;1961;48.194;16.370;2022-08-24T07:22:54;44.77;;;8.50;;
3891;SDS011;1961;48.194;16.370;2022-08-24T07:25:20;45.00;;;8.50;;
3891;SDS011;1961;48.194;16.370;2022-08-24T07:27:47;45.40;;;7.97;;
3891;SDS011;1961;48.194;16.370;2022-08-24T07:30:13;45.13;;;8.50;;
3891;SDS011;1961;48.194;16.370;2022-08-24T07:32:41;44.53;;;7.80;;
3891;SDS011;1961;48.194;16.370;2022-08-24T07:35:07;45.47;;;8.73;;
3891;SDS011;1961;48.194;16.370;2022-08-24T07:37:34;47.00;;;8.37;;
3891;SDS011;1961;48.194;16.370;2022-08-24T07:40:00;43.97;;;7.60;;
3891;SDS011;1961;48.194;16.370;2022-08-24T07:42:27;46.30;;;8.77;;
3891;SDS011;1961;48.194;16.370;2022-08-24T07:44:53;46.37;;;8.40;;
3891;SDS011;1961;48.194;16.370;2022-08-24T07:47:19;44.40;;;8.83;;
3891;SDS011;1961;48.194;16.370;2022-08-24T07:49:45;47.13;;;9.07;;
3891;SDS011;1961;48.194;16.370;2022-08-24T07:52:12;47.00;;;8.40;;
3891;SDS011;1961;48.194;16.370;2022-08-24T07:54:38;44.77;;;8.67;;
3891;SDS011;1961;48.194;16.370;2022-08-24T07:57:05;45.10;;;8.87;;
3891;SDS011;1961;48.194;16.370;2022-08-24T07:59:32;45.97;;;8.70;;
3891;SDS011;1961;48.194;16.370;2022-08-24T08:01:58;48.40;;;9.73;;
3891;SDS011;1961;48.194;16.370;2022-08-24T08:04:25;46.77;;;8.60;;
3891;SDS011;1961;48.194;16.370;2022-08-24T08:06:51;44.33;;;7.73;;
3891;SDS011;1961;48.194;16.370;2022-08-24T08:09:18;45.40;;;8.20;;
3891;SDS011;1961;48.194;16.370;2022-08-24T08:11:44;45.17;;;8.20;;
3891;SDS011;1961;48.194;16.370;2022-08-24T08:14:11;45.07;;;8.57;;
3891;SDS011;1961;48.194;16.370;2022-08-24T08:16:41;44.97;;;8.77;;
3891;SDS011;1961;48.194;16.370;2022-08-24T08:19:07;44.70;;;8.17;;
3891;SDS011;1961;48.194;16.370;2022-08-24T08:21:33;45.50;;;8.30;;
3891;SDS011;1961;48.194;16.370;2022-08-24T08:24:18;45.30;;;8.30;;
3891;SDS011;1961;48.194;16.370;2022-08-24T08:26:45;45.30;;;8.37;;
3891;SDS011;1961;48.194;16.370;2022-08-24T08:29:13;45.97;;;8.80;;
3891;SDS011;1961;48.194;16.370;2022-08-24T08:31:40;46.17;;;8.33;;
3891;SDS011;1961;48.194;16.370;2022-08-24T08:34:06;50.00;;;11.57;;
3891;SDS011;1961;48.194;16.370;2022-08-24T08:36:33;45.60;;;8.37;;
3891;SDS011;1961;48.194;16.370;2022-08-24T08:39:00;44.63;;;8.60;;
3891;SDS011;1961;48.194;16.370;2022-08-24T08:46:44;44.30;;;8.13;;
3891;SDS011;1961;48.194;16.370;2022-08-24T08:49:22;44.80;;;8.60;;
3891;SDS011;1961;48.194;16.370;2022-08-24T09:04:52;44.53;;;8.00;;
3891;SDS011;1961;48.194;16.370;2022-08-24T09:20:54;44.10;;;8.33;;
3891;SDS011;1961;48.194;16.370;2022-08-24T09:26:22;44.40;;;8.77;;
3891;SDS011;1961;48.194;16.370;2022-08-24T09:31:50;54.90;;;9.40;;
3891;SDS011;1961;48.194;16.370;2022-08-24T09:44:51;44.57;;;8.60;;
3891;SDS011;1961;48.194;16.370;2022-08-24T09:50:47;45.37;;;7.90;;
3891;SDS011;1961;48.194;16.370;2022-08-24T09:58:41;45.10;;;8.60;;
3891;SDS011;1961;48.194;16.370;2022-08-24T10:03:52;44.60;;;8.80;;
3891;SDS011;1961;48.194;16.370;2022-08-24T10:19:06;47.87;;;8.77;;
3891;SDS011;1961;48.194;16.370;2022-08-24T10:21:39;46.60;;;8.70;;
3891;SDS011;1961;48.194;16.370;2022-08-24T10:29:57;50.03;;;9.13;;
3891;SDS011;1961;48.194;16.370;2022-08-24T10:34:33;44.27;;;8.60;;
3891;SDS011;1961;48.194;16.370;2022-08-24T10:45:22;45.27;;;8.53;;
3891;SDS011;1961;48.194;16.370;2022-08-24T10:53:25;46.00;;;9.77;;
3891;SDS011;1961;48.194;16.370;2022-08-24T10:56:11;47.57;;;9.80;;
3891;SDS011;1961;48.194;16.370;2022-08-24T10:58:48;45.67;;;8.87;;
3891;SDS011;1961;48.194;16.370;2022-08-24T11:03:52;46.20;;;9.40;;
3891;SDS011;1961;48.194;16.370;2022-08-24T11:06:19;45.40;;;8.67;;
3891;SDS011;1961;48.194;16.370;2022-08-24T11:08:53;45.60;;;9.47;;
3891;SDS011;1961;48.194;16.370;2022-08-24T11:14:09;46.00;;;9.30;;
3891;SDS011;1961;48.194;16.370;2022-08-24T11:16:47;45.43;;;9.27;;
3891;SDS011;1961;48.194;16.370;2022-08-24T11:21:54;48.37;;;10.37;;
3891;SDS011;1961;48.194;16.370;2022-08-24T11:27:07;48.47;;;8.70;;
3891;SDS011;1961;48.194;16.370;2022-08-24T11:34:50;45.00;;;9.07;;
3891;SDS011;1961;48.194;16.370;2022-08-24T11:37:21;47.87;;;10.03;;
3891;SDS011;1961;48.194;16.370;2022-08-24T11:39:48;46.17;;;9.43;;
3891;SDS011;1961;48.194;16.370;2022-08-24T11:45:03;47.30;;;11.10;;
3891;SDS011;1961;48.194;16.370;2022-08-24T11:50:04;46.40;;;10.73;;
3891;SDS011;1961;48.194;16.370;2022-08-24T11:52:49;47.10;;;10.93;;
3891;SDS011;1961;48.194;16.370;2022-08-24T11:55:29;48.13;;;10.83;;
3891;SDS011;1961;48.194;16.370;2022-08-24T11:58:05;47.07;;;9.67;;
3891;SDS011;1961;48.194;16.370;2022-08-24T12:16:21;47.53;;;10.10;;
3891;SDS011;1961;48.194;16.370;2022-08-24T12:21:28;47.63;;;9.40;;
3891;SDS011;1961;48.194;16.370;2022-08-24T12:24:03;46.13;;;10.20;;
3891;SDS011;1961;48.194;16.370;2022-08-24T12:26:35;47.50;;;9.87;;
3891;SDS011;1961;48.194;16.370;2022-08-24T12:29:22;47.53;;;10.40;;
3891;SDS011;1961;48.194;16.370;2022-08-24T12:32:03;47.87;;;10.83;;
3891;SDS011;1961;48.194;16.370;2022-08-24T12:39:45;45.77;;;9.50;;
3891;SDS011;1961;48.194;16.370;2022-08-24T12:44:49;47.27;;;11.13;;
3891;SDS011;1961;48.194;16.370;2022-08-24T12:47:19;48.30;;;10.10;;
3891;SDS011;1961;48.194;16.370;2022-08-24T12:49:49;48.13;;;9.33;;
3891;SDS011;1961;48.194;16.370;2022-08-24T12:52:34;45.57;;;9.50;;
3891;SDS011;1961;48.194;16.370;2022-08-24T13:00:07;46.17;;;9.03;;
3891;SDS011;1961;48.194;16.370;2022-08-24T13:02:36;50.37;;;10.23;;
3891;SDS011;1961;48.194;16.370;2022-08-24T13:05:09;45.67;;;9.50;;
3891;SDS011;1961;48.194;16.370;2022-08-24T13:07:46;45.90;;;9.60;;
3891;SDS011;1961;48.194;16.370;2022-08-24T13:11:06;49.90;;;10.67;;
3891;SDS011;1961;48.194;16.370;2022-08-24T13:31:31;48.10;;;9.87;;
3891;SDS011;1961;48.194;16.370;2022-08-24T13:33:33;45.90;;;9.17;;
3891;SDS011;1961;48.194;16.370;2022-08-24T13:36:03;46.13;;;9.10;;
3891;SDS011;1961;48.194;16.370;2022-08-24T13:41:03;45.27;;;9.57;;
3891;SDS011;1961;48.194;16.370;2022-08-24T13:51:11;45.53;;;9.87;;
3891;SDS011;1961;48.194;16.370;2022-08-24T13:59:05;46.73;;;9.20;;
3891;SDS011;1961;48.194;16.370;2022-08-24T14:09:19;47.10;;;9.80;;
3891;SDS011;1961;48.194;16.370;2022-08-24T14:17:14;46.20;;;10.33;;
3891;SDS011;1961;48.194;16.370;2022-08-24T14:20:08;46.30;;;9.33;;
3891;SDS011;1961;48.194;16.370;2022-08-24T14:25:25;48.17;;;9.70;;
3891;SDS011;1961;48.194;16.370;2022-08-24T14:35:17;45.90;;;9.73;;
3891;SDS011;1961;48.194;16.370;2022-08-24T14:40:30;47.37;;;10.53;;
3891;SDS011;1961;48.194;16.370;2022-08-24T14:42:58;44.87;;;9.20;;
3891;SDS011;1961;48.194;16.370;2022-08-24T14:50:57;46.90;;;9.20;;
3891;SDS011;1961;48.194;16.370;2022-08-24T14:58:34;46.50;;;10.20;;
3891;SDS011;1961;48.194;16.370;2022-08-24T15:01:10;52.53;;;10.90;;
3891;SDS011;1961;48.194;16.370;2022-08-24T15:03:56;46.00;;;10.00;;
3891;SDS011;1961;48.194;16.370;2022-08-24T15:11:55;49.77;;;10.87;;
3891;SDS011;1961;48.194;16.370;2022-08-24T15:14:32;44.67;;;9.20;;
3891;SDS011;1961;48.194;16.370;2022-08-24T15:17:01;45.93;;;9.53;;
3891;SDS011;1961;48.194;16.370;2022-08-24T15:19:30;46.57;;;10.27;;
3891;SDS011;1961;48.194;16.370;2022-08-24T15:22:01;44.47;;;8.90;;
3891;SDS011;1961;48.194;16.370;2022-08-24T15:24:37;46.00;;;9.47;;
3891;SDS011;1961;48.194;16.370;2022-08-24T15:29:48;45.90;;;9.80;;
3891;SDS011;1961;48.194;16.370;2022-08-24T15:32:15;45.87;;;9.80;;
3891;SDS011;1961;48.194;16.370;2022-08-24T15:34:45;46.67;;;9.73;;
3891;SDS011;1961;48.194;16.370;2022-08-24T15:37:15;46.30;;;10.10;;
3891;SDS011;1961;48.194;16.370;2022-08-24T15:39:41;47.37;;;10.20;;
3891;SDS011;1961;48.194;16.370;2022-08-24T15:42:09;46.30;;;10.10;;
3891;SDS011;1961;48.194;16.370;2022-08-24T15:44:36;47.83;;;10.70;;
3891;SDS011;1961;48.194;16.370;2022-08-24T15:47:03;51.43;;;10.30;;
3891;SDS011;1961;48.194;16.370;2022-08-24T15:49:36;45.80;;;9.90;;
3891;SDS011;1961;48.194;16.370;2022-08-24T15:52:36;48.20;;;10.33;;
3891;SDS011;1961;48.194;16.370;2022-08-24T15:54:59;47.73;;;10.77;;
3891;SDS011;1961;48.194;16.370;2022-08-24T15:57:28;48.07;;;10.43;;
3891;SDS011;1961;48.194;16.370;2022-08-24T16:00:08;45.07;;;9.10;;
3891;SDS011;1961;48.194;16.370;2022-08-24T16:02:36;48.40;;;9.87;;
3891;SDS011;1961;48.194;16.370;2022-08-24T16:10:30;48.70;;;11.17;;
3891;SDS011;1961;48.194;16.370;2022-08-24T16:15:33;49.97;;;10.60;;
3891;SDS011;1961;48.194;16.370;2022-08-24T16:17:59;47.20;;;10.00;;
3891;SDS011;1961;48.194;16.370;2022-08-24T16:22:56;46.20;;;9.47;;
3891;SDS011;1961;48.194;16.370;2022-08-24T16:28:04;46.23;;;10.03;;
3891;SDS011;1961;48.194;16.370;2022-08-24T16:32:57;53.80;;;10.80;;
3891;SDS011;1961;48.194;16.370;2022-08-24T16:35:23;48.30;;;10.00;;
3891;SDS011;1961;48.194;16.370;2022-08-24T16:37:50;47.27;;;10.33;;
3891;SDS011;1961;48.194;16.370;2022-08-24T16:40:19;46.87;;;10.47;;
3891;SDS011;1961;48.194;16.370;2022-08-24T16:42:45;47.00;;;10.50;;
3891;SDS011;1961;48.194;16.370;2022-08-24T16:45:12;45.90;;;9.83;;
3891;SDS011;1961;48.194;16.370;2022-08-24T16:47:41;47.40;;;10.43;;
3891;SDS011;1961;48.194;16.370;2022-08-24T16:50:08;47.87;;;10.90;;
3891;SDS011;1961;48.194;16.370;2022-08-24T16:52:34;47.40;;;10.67;;
3891;SDS011;1961;48.194;16.370;2022-08-24T16:55:00;46.57;;;9.90;;
3891;SDS011;1961;48.194;16.370;2022-08-24T16:57:27;49.93;;;10.20;;
3891;SDS011;1961;48.194;16.370;2022-08-24T16:59:54;48.00;;;10.77;;
3891;SDS011;1961;48.194;16.370;2022-08-24T17:02:20;46.27;;;10.10;;
3891;SDS011;1961;48.194;16.370;2022-08-24T17:04:49;50.00;;;10.23;;
3891;SDS011;1961;48.194;16.370;2022-08-24T17:07:21;46.90;;;9.70;;
3891;SDS011;1961;48.194;16.370;2022-08-24T17:09:48;46.33;;;10.67;;
3891;SDS011;1961;48.194;16.370;2022-08-24T17:12:15;49.00;;;10.10;;
3891;SDS011;1961;48.194;16.370;2022-08-24T17:14:41;51.30;;;10.60;;
3891;SDS011;1961;48.194;16.370;2022-08-24T17:17:09;49.90;;;11.90;;
3891;SDS011;1961;48.194;16.370;2022-08-24T17:19:37;47.37;;;10.40;;
3891;SDS011;1961;48.194;16.370;2022-08-24T17:22:04;48.33;;;10.20;;
3891;SDS011;1961;48.194;16.370;2022-08-24T17:24:31;48.17;;;10.33;;
3891;SDS011;1961;48.194;16.370;2022-08-24T17:26:57;45.27;;;9.43;;
3891;SDS011;1961;48.194;16.370;2022-08-24T17:29:25;45.43;;;9.20;;
3891;SDS011;1961;48.194;16.370;2022-08-24T17:31:52;48.10;;;11.03;;
3891;SDS011;1961;48.194;16.370;2022-08-24T17:34:19;46.90;;;10.30;;
3891;SDS011;1961;48.194;16.370;2022-08-24T17:36:46;46.87;;;10.73;;
3891;SDS011;1961;48.194;16.370;2022-08-24T17:39:13;47.57;;;10.47;;
3891;SDS011;1961;48.194;16.370;2022-08-24T17:41:39;49.13;;;10.90;;
3891;SDS011;1961;48.194;16.370;2022-08-24T17:44:07;49.17;;;11.17;;
3891;SDS011;1961;48.194;16.370;2022-08-24T17:46:34;45.30;;;9.93;;
3891;SDS011;1961;48.194;16.370;2022-08-24T17:49:01;46.33;;;11.07;;
3891;SDS011;1961;48.194;16.370;2022-08-24T17:51:27;48.17;;;11.90;;
3891;SDS011;1961;48.194;16.370;2022-08-24T17:53:54;49.70;;;11.30;;
3891;SDS011;1961;48.194;16.370;2022-08-24T17:56:20;48.70;;;10.10;;
3891;SDS011;1961;48.194;16.370;2022-08-24T17:58:46;48.57;;;10.57;;
3891;SDS011;1961;48.194;16.370;2022-08-24T18:01:31;48.10;;;10.13;;
3891;SDS011;1961;48.194;16.370;2022-08-24T18:03:58;51.40;;;9.90;;
3891;SDS011;1961;48.194;16.370;2022-08-24T18:06:24;51.90;;;12.23;;
3891;SDS011;1961;48.194;16.370;2022-08-24T18:08:52;47.97;;;11.00;;
3891;SDS011;1961;48.194;16.370;2022-08-24T18:11:21;47.67;;;11.03;;
3891;SDS011;1961;48.194;16.370;2022-08-24T18:13:48;53.73;;;11.00;;
3891;SDS011;1961;48.194;16.370;2022-08-24T18:16:15;48.53;;;11.00;;
3891;SDS011;1961;48.194;16.370;2022-08-24T18:18:42;46.17;;;9.43;;
3891;SDS011;1961;48.194;16.370;2022-08-24T18:21:08;46.27;;;10.00;;
3891;SDS011;1961;48.194;16.370;2022-08-24T18:23:34;45.50;;;9.73;;
3891;SDS011;1961;48.194;16.370;2022-08-24T18:26:00;52.90;;;10.97;;
3891;SDS011;1961;48.194;16.370;2022-08-24T18:28:27;45.70;;;10.30;;
3891;SDS011;1961;48.194;16.370;2022-08-24T18:30:53;46.23;;;10.20;;
3891;SDS011;1961;48.194;16.370;2022-08-24T18:33:19;46.77;;;10.47;;
3891;SDS011;1961;48.194;16.370;2022-08-24T18:35:45;46.07;;;10.13;;
3891;SDS011;1961;48.194;16.370;2022-08-24T18:38:12;46.50;;;10.00;;
3891;SDS011;1961;48.194;16.370;2022-08-24T18:40:39;46.90;;;10.50;;
3891;SDS011;1961;48.194;16.370;2022-08-24T18:43:06;49.70;;;10.30;;
3891;SDS011;1961;48.194;16.370;2022-08-24T18:45:33;46.87;;;10.20;;
3891;SDS011;1961;48.194;16.370;2022-08-24T18:47:59;48.23;;;11.07;;
3891;SDS011;1961;48.194;16.370;2022-08-24T18:50:26;47.70;;;10.70;;
3891;SDS011;1961;48.194;16.370;2022-08-24T18:52:53;47.27;;;10.40;;
3891;SDS011;1961;48.194;16.370;2022-08-24T18:55:20;48.67;;;10.63;;
3891;SDS011;1961;48.194;16.370;2022-08-24T18:57:47;50.27;;;11.27;;
3891;SDS011;1961;48.194;16.370;2022-08-24T19:00:13;47.27;;;10.57;;
3891;SDS011;1961;48.194;16.370;2022-08-24T19:02:39;47.07;;;10.10;;